Time;durP1;ratioP1;P1;durP2;ratioP2;P2;SDS_P1;SDS_P2;PMS_P1;PMS_P2;Temp;Humidity;BMP_temperature;BMP_pressure;BME280_temperature;BME280_humidity;BME280_pressure;Samples;Min_cycle;Max_cycle;Signal;HPM_P1;HPM_P2
2023/04/09 00:00:53;;;;;;;17.5;14.2;;;;;;;;;;;;;
2023/04/09 00:03:18;;;;;;;17.8;14.9;;;;;;;;;;;;;
2023/04/09 00:05:44;;;;;;;17.9;14.5;;;;;;;;;;;;;
2023/04/09 00:08:09;;;;;;;18.7;15.2;;;;;;;;;;;;;
2023/04/09 00:10:35;;;;;;;17.6;13.9;;;;;;;;;;;;;
2023/04/09 00:13:01;;;;;;;18.8;14.8;;;;;;;;;;;;;
2023/04/09 00:15:28;;;;;;;19.2;15;;;;;;;;;;;;;
2023/04/09 00:17:55;;;;;;;17.7;14.2;;;;;;;;;;;;;
2023/04/09 00:20:18;;;;;;;17.2;14.1;;;;;;;;;;;;;
2023/04/09 00:22:44;;;;;;;17.9;14.6;;;;;;;;;;;;;
2023/04/09 00:25:09;;;;;;;17.4;14.4;;;;;;;;;;;;;
2023/04/09 00:27:36;;;;;;;17.9;14.3;;;;;;;;;;;;;
2023/04/09 00:30:01;;;;;;;18.4;14.9;;;;;;;;;;;;;
2023/04/09 00:32:27;;;;;;;18.5;14.3;;;;;;;;;;;;;
2023/04/09 00:34:52;;;;;;;18.5;15.1;;;;;;;;;;;;;
2023/04/09 00:37:17;;;;;;;18.8;14.4;;;;;;;;;;;;;
2023/04/09 00:39:43;;;;;;;17.9;14.4;;;;;;;;;;;;;
2023/04/09 00:42:08;;;;;;;16.2;13.3;;;;;;;;;;;;;
2023/04/09 00:44:33;;;;;;;17.8;14.5;;;;;;;;;;;;;
2023/04/09 00:47:00;;;;;;;17.3;14.5;;;;;;;;;;;;;
2023/04/09 00:49:25;;;;;;;17.5;14.3;;;;;;;;;;;;;
2023/04/09 00:51:51;;;;;;;16.9;13.9;;;;;;;;;;;;;
2023/04/09 00:54:16;;;;;;;16.8;13.5;;;;;;;;;;;;;
2023/04/09 00:56:41;;;;;;;18.7;14.6;;;;;;;;;;;;;
2023/04/09 00:59:07;;;;;;;21.3;16.4;;;;;;;;;;;;;
2023/04/09 01:01:32;;;;;;;20.3;16;;;;;;;;;;;;;
2023/04/09 01:03:58;;;;;;;19;15;;;;;;;;;;;;;
2023/04/09 01:06:23;;;;;;;18.1;14.4;;;;;;;;;;;;;
2023/04/09 01:08:49;;;;;;;16.8;13;;;;;;;;;;;;;
2023/04/09 01:11:16;;;;;;;15.8;13;;;;;;;;;;;;;
2023/04/09 01:13:40;;;;;;;16.9;13.8;;;;;;;;;;;;;
2023/04/09 01:16:07;;;;;;;18.1;14;;;;;;;;;;;;;
2023/04/09 01:18:32;;;;;;;17.8;14.1;;;;;;;;;;;;;
2023/04/09 01:20:58;;;;;;;17.9;14.5;;;;;;;;;;;;;
2023/04/09 01:23:24;;;;;;;18.4;15.1;;;;;;;;;;;;;
2023/04/09 01:25:49;;;;;;;20.5;15;;;;;;;;;;;;;
2023/04/09 01:28:15;;;;;;;18.7;15.2;;;;;;;;;;;;;
2023/04/09 01:30:39;;;;;;;17.7;14.2;;;;;;;;;;;;;
2023/04/09 01:33:04;;;;;;;17.5;14;;;;;;;;;;;;;
2023/04/09 01:35:30;;;;;;;19.4;15.2;;;;;;;;;;;;;
2023/04/09 01:37:55;;;;;;;19.5;15.1;;;;;;;;;;;;;
2023/04/09 01:40:20;;;;;;;18.9;14.7;;;;;;;;;;;;;
2023/04/09 01:42:47;;;;;;;17;13.7;;;;;;;;;;;;;
2023/04/09 01:45:12;;;;;;;17.7;13.5;;;;;;;;;;;;;
2023/04/09 01:47:39;;;;;;;14.8;12.4;;;;;;;;;;;;;
2023/04/09 01:50:04;;;;;;;16.2;12.7;;;;;;;;;;;;;
2023/04/09 01:52:32;;;;;;;17.2;13.8;;;;;;;;;;;;;
2023/04/09 01:54:57;;;;;;;16.9;13.5;;;;;;;;;;;;;
2023/04/09 01:57:22;;;;;;;18.6;14;;;;;;;;;;;;;
2023/04/09 01:59:47;;;;;;;18.5;15.2;;;;;;;;;;;;;
2023/04/09 02:02:14;;;;;;;17.8;14.2;;;;;;;;;;;;;
2023/04/09 02:04:39;;;;;;;18.3;15.2;;;;;;;;;;;;;
2023/04/09 02:07:04;;;;;;;19.2;15;;;;;;;;;;;;;
2023/04/09 02:09:31;;;;;;;14.6;11.9;;;;;;;;;;;;;
2023/04/09 02:11:56;;;;;;;13.8;10.8;;;;;;;;;;;;;
2023/04/09 02:14:22;;;;;;;12.4;10.1;;;;;;;;;;;;;
2023/04/09 02:16:47;;;;;;;14;10.9;;;;;;;;;;;;;
2023/04/09 02:19:13;;;;;;;13.7;11.3;;;;;;;;;;;;;
2023/04/09 02:21:38;;;;;;;16.7;13.2;;;;;;;;;;;;;
2023/04/09 02:24:05;;;;;;;17.4;13.6;;;;;;;;;;;;;
2023/04/09 02:26:30;;;;;;;19.2;14.4;;;;;;;;;;;;;
2023/04/09 02:28:55;;;;;;;18.9;14.8;;;;;;;;;;;;;
2023/04/09 02:31:21;;;;;;;19.5;15;;;;;;;;;;;;;
2023/04/09 02:33:47;;;;;;;19.1;15;;;;;;;;;;;;;
2023/04/09 02:36:12;;;;;;;19.3;14.6;;;;;;;;;;;;;
2023/04/09 02:38:38;;;;;;;18.3;13.9;;;;;;;;;;;;;
2023/04/09 02:41:03;;;;;;;18;13.4;;;;;;;;;;;;;
2023/04/09 02:43:29;;;;;;;19.7;15.1;;;;;;;;;;;;;
2023/04/09 02:45:54;;;;;;;19.2;14.3;;;;;;;;;;;;;
2023/04/09 02:48:20;;;;;;;20.3;15.1;;;;;;;;;;;;;
2023/04/09 02:50:45;;;;;;;17.8;13.9;;;;;;;;;;;;;
2023/04/09 02:53:12;;;;;;;21.5;16.1;;;;;;;;;;;;;
2023/04/09 02:55:38;;;;;;;21.7;16.1;;;;;;;;;;;;;
2023/04/09 02:58:03;;;;;;;20.4;15.4;;;;;;;;;;;;;
2023/04/09 03:00:28;;;;;;;20.9;15.2;;;;;;;;;;;;;
2023/04/09 03:02:53;;;;;;;23.8;17.3;;;;;;;;;;;;;
2023/04/09 03:05:18;;;;;;;23.4;17.5;;;;;;;;;;;;;
2023/04/09 03:07:46;;;;;;;24.2;17.2;;;;;;;;;;;;;
2023/04/09 03:10:09;;;;;;;22.6;16.8;;;;;;;;;;;;;
2023/04/09 03:12:39;;;;;;;22.1;16.4;;;;;;;;;;;;;
2023/04/09 03:15:04;;;;;;;23.9;17.2;;;;;;;;;;;;;
2023/04/09 03:17:30;;;;;;;22.4;16.9;;;;;;;;;;;;;
2023/04/09 03:19:54;;;;;;;22.1;16.5;;;;;;;;;;;;;
2023/04/09 03:22:20;;;;;;;21.9;16.3;;;;;;;;;;;;;
2023/04/09 03:24:46;;;;;;;21.3;16;;;;;;;;;;;;;
2023/04/09 03:27:11;;;;;;;22.3;16.5;;;;;;;;;;;;;
2023/04/09 03:29:36;;;;;;;25.9;16.7;;;;;;;;;;;;;
2023/04/09 03:32:02;;;;;;;23;15.4;;;;;;;;;;;;;
2023/04/09 03:34:27;;;;;;;22;14.6;;;;;;;;;;;;;
2023/04/09 03:36:53;;;;;;;19.4;14;;;;;;;;;;;;;
2023/04/09 03:39:18;;;;;;;20.2;14.4;;;;;;;;;;;;;
2023/04/09 03:41:45;;;;;;;18.5;13;;;;;;;;;;;;;
2023/04/09 03:44:11;;;;;;;15.6;11.9;;;;;;;;;;;;;
2023/04/09 03:46:36;;;;;;;16;12;;;;;;;;;;;;;
2023/04/09 03:49:01;;;;;;;14.8;11.7;;;;;;;;;;;;;
2023/04/09 03:51:26;;;;;;;15.6;11.8;;;;;;;;;;;;;
2023/04/09 03:53:51;;;;;;;16;12.1;;;;;;;;;;;;;
2023/04/09 03:56:16;;;;;;;15;11.4;;;;;;;;;;;;;
2023/04/09 03:58:42;;;;;;;14.6;10.9;;;;;;;;;;;;;
2023/04/09 04:02:37;;;;;;;15.3;11.6;;;;;;;4.24;96.13184;942.2097;;;;
2023/04/09 04:06:06;;;;;;;14.8;11.3;;;;;;;4.27;96.09277;942.1462;;;;
2023/04/09 04:08:37;;;;;;;16.7;12.7;;;;;;;4.04;96.45801;942.1867;;;;
2023/04/09 04:11:07;;;;;;;15.6;12;;;;;;;4.03;96.78027;942.2286;;;;
2023/04/09 04:13:39;;;;;;;15.3;11.2;;;;;;;4.07;96.84668;942.1902;;;;
2023/04/09 04:16:10;;;;;;;15;11.1;;;;;;;4.09;96.63672;942.2012;;;;
2023/04/09 04:18:40;;;;;;;14.6;11.1;;;;;;;4.16;96.49609;942.255;;;;
2023/04/09 04:21:05;;;;;;;13.7;10.7;;;;;;;4.13;96.43359;942.2556;;;;
2023/04/09 04:23:30;;;;;;;14.1;10.9;;;;;;;3.98;96.84863;942.2775;;;;
2023/04/09 04:25:56;;;;;;;14.7;11;;;;;;;3.9;97.3584;942.335;;;;
2023/04/09 04:28:20;;;;;;;14.5;11.1;;;;;;;3.8;97.71973;942.2769;;;;
2023/04/09 04:30:51;;;;;;;15;10.9;;;;;;;3.87;97.7793;942.3851;;;;
2023/04/09 04:33:22;;;;;;;13.5;10.4;;;;;;;3.83;97.50195;942.345;;;;
2023/04/09 04:35:51;;;;;;;11.9;9.7;;;;;;;3.79;97.73828;942.3311;;;;
2023/04/09 04:38:16;;;;;;;12.6;9.8;;;;;;;3.93;97.54688;942.4119;;;;
2023/04/09 04:40:45;;;;;;;12.2;9.8;;;;;;;4.09;97.4043;942.363;;;;
2023/04/09 04:43:10;;;;;;;10.8;9.2;;;;;;;4.11;97.19434;942.3433;;;;
2023/04/09 04:45:39;;;;;;;12.6;9.9;;;;;;;4.21;96.83301;942.3929;;;;
2023/04/09 04:48:04;;;;;;;12.3;9.6;;;;;;;4.22;96.26074;942.428;;;;
2023/04/09 04:50:33;;;;;;;14.1;11.2;;;;;;;4.23;96.20898;942.4183;;;;
2023/04/09 04:52:58;;;;;;;17.2;12.8;;;;;;;4.15;96.30078;942.4564;;;;
2023/04/09 04:55:27;;;;;;;16.2;11.4;;;;;;;4.11;96.39551;942.4054;;;;
2023/04/09 04:57:53;;;;;;;17.6;12;;;;;;;4.21;96.13672;942.4458;;;;
2023/04/09 05:00:17;;;;;;;15.9;11.7;;;;;;;4.33;95.92676;942.4869;;;;
2023/04/09 05:02:44;;;;;;;17.6;12.7;;;;;;;4.37;95.6875;942.3481;;;;
2023/04/09 05:05:09;;;;;;;16.4;12.1;;;;;;;4.38;94.97168;942.4841;;;;
2023/04/09 05:07:35;;;;;;;16.9;12.1;;;;;;;4.47;94.6875;942.4556;;;;
2023/04/09 05:10:00;;;;;;;15.3;11.2;;;;;;;4.53;94.35059;942.5075;;;;
2023/04/09 05:12:25;;;;;;;10.5;8.4;;;;;;;4.48;93.59766;942.5309;;;;
2023/04/09 05:15:16;;;;;;;11.3;8.5;;;;;;;4.51;93.0293;942.5367;;;;
2023/04/09 05:17:41;;;;;;;10;7.9;;;;;;;4.28;93.21484;942.5061;;;;
2023/04/09 05:20:11;;;;;;;9.9;7.9;;;;;;;4.22;93.57227;942.4762;;;;
2023/04/09 05:22:36;;;;;;;11.8;8.9;;;;;;;4.29;94.81641;942.5128;;;;
2023/04/09 05:25:05;;;;;;;13.2;10;;;;;;;4.35;95.68359;942.5066;;;;
2023/04/09 05:27:30;;;;;;;10.6;9.1;;;;;;;4.46;95.49414;942.5237;;;;
2023/04/09 05:30:01;;;;;;;11.5;9;;;;;;;4.5;95.34473;942.4991;;;;
2023/04/09 05:32:26;;;;;;;13.1;10.1;;;;;;;4.52;95.45215;942.4442;;;;
2023/04/09 05:34:54;;;;;;;13.5;10.3;;;;;;;4.67;95.08984;942.461;;;;
2023/04/09 05:37:19;;;;;;;9.3;7.5;;;;;;;4.65;93.9502;942.496;;;;
2023/04/09 05:39:48;;;;;;;10.1;7.5;;;;;;;4.73;93.34863;942.343;;;;
2023/04/09 05:42:14;;;;;;;8.5;7.2;;;;;;;4.88;92.55762;942.493;;;;
2023/04/09 05:44:39;;;;;;;8.3;7;;;;;;;4.83;90.75684;942.4819;;;;
2023/04/09 05:47:04;;;;;;;7.9;6.7;;;;;;;4.92;91.04492;942.5236;;;;
2023/04/09 05:49:30;;;;;;;8.2;6.6;;;;;;;5;91.03906;942.5676;;;;
2023/04/09 05:51:55;;;;;;;8.3;6.8;;;;;;;4.99;90.19238;942.4893;;;;
2023/04/09 05:54:20;;;;;;;8.1;6.4;;;;;;;4.93;90.22363;942.5634;;;;
2023/04/09 05:56:46;;;;;;;9.2;7.5;;;;;;;4.95;90.12793;942.5367;;;;
2023/04/09 05:59:12;;;;;;;9.1;6.9;;;;;;;4.82;90.82227;942.5769;;;;
2023/04/09 06:01:37;;;;;;;8.5;7;;;;;;;4.94;91.37695;942.6027;;;;
2023/04/09 06:04:03;;;;;;;8.2;6.5;;;;;;;4.99;90.81152;942.6046;;;;
2023/04/09 06:06:30;;;;;;;8;6.9;;;;;;;4.85;91.26758;942.5884;;;;
2023/04/09 06:08:55;;;;;;;8.8;7.2;;;;;;;4.9;91.18945;942.6138;;;;
2023/04/09 06:11:25;;;;;;;8.6;6.9;;;;;;;5;90.61133;942.6292;;;;
2023/04/09 06:13:49;;;;;;;8.2;7.2;;;;;;;5.06;89.62109;942.658;;;;
2023/04/09 06:16:15;;;;;;;11.3;9.2;;;;;;;5.2;89.58398;942.637;;;;
2023/04/09 06:18:41;;;;;;;13.7;11.3;;;;;;;5.38;89.56348;942.6286;;;;
2023/04/09 06:21:07;;;;;;;16.1;14.4;;;;;;;5.52;89.62598;942.6733;;;;
2023/04/09 06:23:33;;;;;;;10.2;8.6;;;;;;;5.56;88.74316;942.6772;;;;
2023/04/09 06:26:01;;;;;;;8.4;7.3;;;;;;;5.58;88.52344;942.7065;;;;
2023/04/09 06:28:26;;;;;;;9.2;7.8;;;;;;;5.78;88.18945;942.7271;;;;
2023/04/09 06:30:55;;;;;;;8.4;7.5;;;;;;;5.95;87.44629;942.7175;;;;
2023/04/09 06:33:24;;;;;;;8.7;7.3;;;;;;;6.21;86.93457;942.719;;;;
2023/04/09 06:35:50;;;;;;;8.6;7;;;;;;;6.43;85.3623;942.6954;;;;
2023/04/09 06:38:15;;;;;;;7.9;6.7;;;;;;;6.6;84.41113;942.6699;;;;
2023/04/09 06:40:42;;;;;;;7.9;6.5;;;;;;;6.78;83.12402;942.6799;;;;
2023/04/09 06:43:08;;;;;;;8.6;7.1;;;;;;;6.8;83.19531;942.6964;;;;
2023/04/09 06:45:39;;;;;;;9;6.7;;;;;;;6.98;82.03027;942.7076;;;;
2023/04/09 06:48:08;;;;;;;7.5;6.7;;;;;;;7.15;81.04199;942.7073;;;;
2023/04/09 06:50:34;;;;;;;7.4;6.6;;;;;;;7.09;82.0957;942.6581;;;;
2023/04/09 06:53:01;;;;;;;7.8;6.9;;;;;;;7.3;80.69629;942.7785;;;;
2023/04/09 06:55:27;;;;;;;7.4;6.3;;;;;;;7.21;81.75391;942.7358;;;;
2023/04/09 06:57:52;;;;;;;8.5;6.9;;;;;;;7.31;79.50879;942.7424;;;;
2023/04/09 07:00:24;;;;;;;8.4;7.1;;;;;;;7.4;81.00977;942.6379;;;;
2023/04/09 07:02:48;;;;;;;8.1;6.9;;;;;;;7.25;79.84766;942.7341;;;;
2023/04/09 07:05:14;;;;;;;7;5.8;;;;;;;7.25;78.56738;942.7397;;;;
2023/04/09 07:07:39;;;;;;;5.8;5;;;;;;;7.48;79.4248;942.7687;;;;
2023/04/09 07:10:07;;;;;;;6.1;5.1;;;;;;;7.68;79.06641;942.7833;;;;
2023/04/09 07:12:32;;;;;;;5.8;5.2;;;;;;;7.8;78.2959;942.7787;;;;
2023/04/09 07:14:58;;;;;;;6.1;5.4;;;;;;;8.04;77.30566;942.7437;;;;
2023/04/09 07:17:23;;;;;;;7.3;6;;;;;;;8.19;75.92285;942.7855;;;;
2023/04/09 07:19:52;;;;;;;6.3;5.7;;;;;;;8.3;75.72656;942.8552;;;;
2023/04/09 07:22:16;;;;;;;6.7;6;;;;;;;8.21;73.98633;942.8275;;;;
2023/04/09 07:24:42;;;;;;;7;6.1;;;;;;;7.91;75.18164;942.8652;;;;
2023/04/09 07:27:07;;;;;;;7.9;6.3;;;;;;;7.8;75.85449;942.8222;;;;
2023/04/09 07:29:32;;;;;;;6.7;5.6;;;;;;;7.75;76.58398;942.8638;;;;
2023/04/09 07:31:59;;;;;;;8.4;7;;;;;;;7.53;80.07031;942.8929;;;;
2023/04/09 07:34:26;;;;;;;8.8;7.4;;;;;;;7.75;80.69043;942.8995;;;;
2023/04/09 07:36:51;;;;;;;8.9;7.2;;;;;;;7.73;80.77832;942.8766;;;;
2023/04/09 07:39:16;;;;;;;8.3;7.1;;;;;;;8.09;80.17578;942.9473;;;;
2023/04/09 07:41:41;;;;;;;9.4;7.3;;;;;;;8.33;78.73145;942.9688;;;;
2023/04/09 07:44:09;;;;;;;9.3;7.6;;;;;;;8.62;77.15918;942.937;;;;
2023/04/09 07:46:34;;;;;;;8.8;7.5;;;;;;;9.12;75.12012;942.9841;;;;
2023/04/09 07:49:02;;;;;;;10.4;7.6;;;;;;;9.76;71.59766;942.9341;;;;
2023/04/09 07:51:27;;;;;;;8.6;7.7;;;;;;;10.06;70.07227;942.8211;;;;
2023/04/09 07:53:52;;;;;;;9.2;7.4;;;;;;;10.32;68.17383;942.9522;;;;
2023/04/09 07:56:17;;;;;;;9.4;7.7;;;;;;;10.43;67.59961;942.921;;;;
2023/04/09 07:58:44;;;;;;;8.9;7.5;;;;;;;10.62;68.91895;942.8289;;;;
2023/04/09 08:01:09;;;;;;;8.9;7.2;;;;;;;11.96;64.30957;942.8783;;;;
2023/04/09 08:03:36;;;;;;;7.8;7;;;;;;;12.46;60.81738;942.8677;;;;
2023/04/09 08:06:02;;;;;;;8.8;7.6;;;;;;;12.02;59.92969;942.7915;;;;
2023/04/09 08:08:29;;;;;;;8.6;7.1;;;;;;;14.75;54.65918;942.8262;;;;
2023/04/09 08:10:55;;;;;;;7;5.9;;;;;;;15.72;48.97852;942.7708;;;;
2023/04/09 08:13:21;;;;;;;6.8;6.1;;;;;;;15.72;47.05078;942.8181;;;;
2023/04/09 08:15:46;;;;;;;6.2;5.6;;;;;;;17.48;45.39551;942.7332;;;;
2023/04/09 08:18:12;;;;;;;5.1;4.3;;;;;;;17.53;41.97656;942.8044;;;;
2023/04/09 08:20:43;;;;;;;5.2;4.7;;;;;;;16.82;45.29199;942.7976;;;;
2023/04/09 08:23:02;;;;;;;5.9;4.8;;;;;;;17.44;42.6748;942.7232;;;;
2023/04/09 08:25:29;;;;;;;6.3;5.1;;;;;;;17.98;43.48242;942.7859;;;;
2023/04/09 08:27:55;;;;;;;5.4;4.9;;;;;;;16.54;47.20703;942.851;;;;
2023/04/09 08:30:23;;;;;;;6.1;5.3;;;;;;;17.22;43.80273;942.8585;;;;
2023/04/09 08:32:48;;;;;;;4.9;4.4;;;;;;;17.17;44.24902;942.8442;;;;
2023/04/09 08:35:16;;;;;;;5.6;5.1;;;;;;;17.59;42.62012;942.832;;;;
2023/04/09 08:37:41;;;;;;;6.2;5.6;;;;;;;18.21;43.30859;942.7899;;;;
2023/04/09 08:40:08;;;;;;;5.9;5.3;;;;;;;19.35;39.94824;942.8;;;;
2023/04/09 08:42:33;;;;;;;6.2;5.2;;;;;;;17.93;40.26172;942.78;;;;
2023/04/09 08:44:59;;;;;;;6.7;5.6;;;;;;;18.69;41.44727;942.7966;;;;
2023/04/09 08:47:24;;;;;;;6.4;5.8;;;;;;;17.55;42.63965;942.8019;;;;
2023/04/09 08:49:50;;;;;;;7.2;6.3;;;;;;;18.23;41.64844;942.8438;;;;
2023/04/09 08:52:20;;;;;;;6.3;5.6;;;;;;;19.25;38.30859;942.7928;;;;
2023/04/09 08:54:40;;;;;;;6.9;6.1;;;;;;;20.68;37.05371;942.8502;;;;
2023/04/09 08:57:06;;;;;;;7;5.9;;;;;;;18.65;39.44336;942.8722;;;;
2023/04/09 08:59:35;;;;;;;6.6;5.9;;;;;;;18.78;40.2002;942.8992;;;;
2023/04/09 09:01:59;;;;;;;7.2;6.5;;;;;;;16.32;43.36426;942.8897;;;;
2023/04/09 09:04:24;;;;;;;7.2;6.1;;;;;;;17.53;43.23047;942.9139;;;;
2023/04/09 09:06:55;;;;;;;6.3;5.4;;;;;;;17.99;40.17383;942.8929;;;;
2023/04/09 09:09:23;;;;;;;6.2;5.5;;;;;;;17.82;39.99609;942.9375;;;;
2023/04/09 09:11:49;;;;;;;6;5.3;;;;;;;16.02;43.29004;942.967;;;;
2023/04/09 09:14:16;;;;;;;5.9;5.2;;;;;;;14.08;48.96875;942.9752;;;;
2023/04/09 09:16:44;;;;;;;5.9;5.2;;;;;;;13.01;52.32715;943.0175;;;;
2023/04/09 09:19:10;;;;;;;7.7;5.6;;;;;;;13.32;51.39941;943.0229;;;;
2023/04/09 09:21:35;;;;;;;6.3;5.4;;;;;;;15.26;48.52441;942.9121;;;;
2023/04/09 09:24:00;;;;;;;4.9;4.4;;;;;;;16.76;45.49414;942.9449;;;;
2023/04/09 09:26:28;;;;;;;5.3;4.6;;;;;;;17.52;44.08691;942.8795;;;;
2023/04/09 09:28:53;;;;;;;5.3;4.5;;;;;;;16.63;44.06738;942.8973;;;;
2023/04/09 09:31:21;;;;;;;4.4;4;;;;;;;16.66;42.73828;942.9252;;;;
2023/04/09 09:33:46;;;;;;;4.6;4.2;;;;;;;16.9;43.00586;942.9225;;;;
2023/04/09 09:36:12;;;;;;;4.5;4.1;;;;;;;17.87;40.96387;942.842;;;;
2023/04/09 09:38:37;;;;;;;3.9;3.5;;;;;;;18.05;39.28516;942.8596;;;;
2023/04/09 09:41:02;;;;;;;4.1;3.7;;;;;;;18.35;38.67285;942.8293;;;;
2023/04/09 09:43:27;;;;;;;4.2;3.8;;;;;;;17.12;39.3291;942.798;;;;
2023/04/09 09:45:52;;;;;;;4;3.6;;;;;;;17.93;40.13379;942.8284;;;;
2023/04/09 09:48:17;;;;;;;3.7;3.2;;;;;;;18.31;38.5293;942.8525;;;;
2023/04/09 09:50:43;;;;;;;3.6;3.3;;;;;;;18.99;36.92383;942.7875;;;;
2023/04/09 09:53:08;;;;;;;4.2;3.7;;;;;;;19;38.1709;942.759;;;;
2023/04/09 09:55:34;;;;;;;5.3;3.8;;;;;;;19.48;37.03516;942.8013;;;;
2023/04/09 09:57:59;;;;;;;4.9;4.4;;;;;;;19.76;37.14063;942.8338;;;;
2023/04/09 10:00:32;;;;;;;3.4;3.1;;;;;;;19.85;36.20313;942.7946;;;;
2023/04/09 10:02:57;;;;;;;3.4;3.1;;;;;;;21.39;33.09863;942.8005;;;;
2023/04/09 10:05:28;;;;;;;3.5;3.2;;;;;;;20.52;35.44043;942.7441;;;;
2023/04/09 10:07:52;;;;;;;3.1;2.8;;;;;;;22.05;31.08496;942.7319;;;;
2023/04/09 10:10:20;;;;;;;3.4;3.1;;;;;;;23.1;29.37305;942.6827;;;;
2023/04/09 10:12:45;;;;;;;3.3;3;;;;;;;22.41;30.14844;942.6928;;;;
2023/04/09 10:15:10;;;;;;;3.6;3.3;;;;;;;20.93;33.96484;942.7094;;;;
2023/04/09 10:17:39;;;;;;;4.5;3.6;;;;;;;18.87;36.85645;942.6852;;;;
2023/04/09 10:20:03;;;;;;;3.3;3;;;;;;;17.76;37.39063;942.6769;;;;
2023/04/09 10:22:28;;;;;;;4.1;3.7;;;;;;;17.96;38.80078;942.5887;;;;
2023/04/09 10:24:54;;;;;;;3.8;3.4;;;;;;;18.3;35.77344;942.5988;;;;
2023/04/09 10:27:20;;;;;;;3.7;3.3;;;;;;;18.29;38.27148;942.565;;;;
2023/04/09 10:29:45;;;;;;;3.4;3.1;;;;;;;19.45;35.00488;942.5142;;;;
2023/04/09 10:32:10;;;;;;;5.3;3.9;;;;;;;18.66;34.46582;942.5316;;;;
2023/04/09 10:34:35;;;;;;;3.4;3.1;;;;;;;19.57;36.98535;942.5269;;;;
2023/04/09 10:37:01;;;;;;;3.2;2.9;;;;;;;18.42;37.8418;942.5583;;;;
2023/04/09 10:39:26;;;;;;;3.3;3;;;;;;;18.8;35.41895;942.5214;;;;
2023/04/09 10:41:53;;;;;;;3.5;3.1;;;;;;;18.97;35.2002;942.5061;;;;
2023/04/09 10:44:18;;;;;;;2.9;2.6;;;;;;;20.49;34.18848;942.5044;;;;
2023/04/09 10:46:44;;;;;;;3.1;2.8;;;;;;;21.44;32.33008;942.5217;;;;
2023/04/09 10:49:08;;;;;;;2.6;2.3;;;;;;;21.82;32.79199;942.5377;;;;
2023/04/09 10:51:33;;;;;;;2.5;2.3;;;;;;;22.04;31.2373;942.4618;;;;
2023/04/09 10:53:59;;;;;;;2.8;2.5;;;;;;;21.04;32.93262;942.5298;;;;
2023/04/09 10:56:24;;;;;;;2.7;2.5;;;;;;;22.19;30.54395;942.4594;;;;
2023/04/09 10:58:50;;;;;;;2.9;2.6;;;;;;;22.95;29.11621;942.4194;;;;
2023/04/09 11:01:15;;;;;;;2.7;2.5;;;;;;;21.74;29.78711;942.4444;;;;
2023/04/09 11:03:41;;;;;;;2.9;2.2;;;;;;;21.65;30.12109;942.4319;;;;
2023/04/09 11:06:09;;;;;;;2.5;2.3;;;;;;;21.63;30.46973;942.3962;;;;
2023/04/09 11:08:33;;;;;;;2.5;2.3;;;;;;;22.03;30.07617;942.4133;;;;
2023/04/09 11:11:00;;;;;;;2.3;2.1;;;;;;;20.49;31.66602;942.4905;;;;
2023/04/09 11:13:24;;;;;;;2.1;1.9;;;;;;;18.3;34.2168;942.4575;;;;
2023/04/09 11:15:52;;;;;;;2.4;2.1;;;;;;;18.06;34.87109;942.4684;;;;
2023/04/09 11:18:17;;;;;;;2.3;2.1;;;;;;;17.32;37.48047;942.4792;;;;
2023/04/09 11:20:44;;;;;;;2.2;2;;;;;;;16.89;37.10742;942.481;;;;
2023/04/09 11:23:09;;;;;;;2.1;1.9;;;;;;;16.12;39.39063;942.3977;;;;
2023/04/09 11:25:34;;;;;;;2.2;2;;;;;;;15.57;40.11426;942.4487;;;;
2023/04/09 11:28:01;;;;;;;2.9;2.1;;;;;;;15.44;40.80664;942.4531;;;;
2023/04/09 11:30:26;;;;;;;2.4;2.2;;;;;;;15.41;41.05762;942.4207;;;;
2023/04/09 11:32:53;;;;;;;2.6;2.1;;;;;;;15.02;42.75195;942.4596;;;;
2023/04/09 11:35:18;;;;;;;1.9;1.8;;;;;;;14.8;43.26074;942.3605;;;;
2023/04/09 11:37:45;;;;;;;2;1.8;;;;;;;14.27;41.30762;942.4514;;;;
2023/04/09 11:40:10;;;;;;;2.4;1.9;;;;;;;14.25;43.29883;942.4402;;;;
2023/04/09 11:42:36;;;;;;;2.2;2;;;;;;;14.38;44.17578;942.4427;;;;
2023/04/09 11:45:01;;;;;;;7.7;3.3;;;;;;;13.63;47.00879;942.4653;;;;
2023/04/09 11:47:27;;;;;;;2;1.8;;;;;;;13.28;45.69531;942.4412;;;;
2023/04/09 11:49:52;;;;;;;2.2;2;;;;;;;13.84;44.92676;942.4384;;;;
2023/04/09 11:52:18;;;;;;;2.3;2;;;;;;;13.9;44.9082;942.3674;;;;
2023/04/09 11:54:44;;;;;;;2.2;1.7;;;;;;;13.32;46.45898;942.4543;;;;
2023/04/09 11:57:11;;;;;;;2.8;1.8;;;;;;;13.73;44.05273;942.4305;;;;
2023/04/09 11:59:36;;;;;;;1.9;1.6;;;;;;;13.64;45.40039;942.4325;;;;
2023/04/09 12:02:04;;;;;;;1.9;1.7;;;;;;;13.66;45;942.4878;;;;
2023/04/09 12:04:29;;;;;;;2.2;2;;;;;;;13.63;45.95215;942.454;;;;
2023/04/09 12:06:55;;;;;;;2.6;1.8;;;;;;;13.39;47.81055;942.4419;;;;
2023/04/09 12:09:20;;;;;;;2.9;2.4;;;;;;;13.36;46.87598;942.4545;;;;
2023/04/09 12:11:45;;;;;;;4.4;3.2;;;;;;;13.02;47.8623;942.4095;;;;
2023/04/09 12:14:11;;;;;;;2.4;1.9;;;;;;;13.26;47.62402;942.4244;;;;
2023/04/09 12:16:37;;;;;;;2;1.6;;;;;;;13.37;44.74023;942.4066;;;;
2023/04/09 12:19:02;;;;;;;2.3;2.1;;;;;;;13.3;45.80176;942.4247;;;;
2023/04/09 12:21:30;;;;;;;2.3;2.1;;;;;;;13.29;48.0752;942.3686;;;;
2023/04/09 12:23:55;;;;;;;1.7;1.6;;;;;;;15.4;42.29297;942.371;;;;
2023/04/09 12:26:22;;;;;;;2.2;1.8;;;;;;;16.05;41.55762;942.3524;;;;
2023/04/09 12:28:47;;;;;;;2.1;1.7;;;;;;;15.28;41.42773;942.3585;;;;
2023/04/09 12:31:12;;;;;;;1.7;1.6;;;;;;;14.41;43.33789;942.4067;;;;
2023/04/09 12:33:39;;;;;;;1.7;1.6;;;;;;;14.02;44.54199;942.4328;;;;
2023/04/09 12:36:04;;;;;;;2.1;1.9;;;;;;;13.61;46.41992;942.4545;;;;
2023/04/09 12:38:29;;;;;;;1.9;1.8;;;;;;;13.17;46.91309;942.4369;;;;
2023/04/09 12:40:57;;;;;;;2.3;1.7;;;;;;;12.74;47.17676;942.49;;;;
2023/04/09 12:43:22;;;;;;;1.7;1.6;;;;;;;12.8;47.28711;942.4178;;;;
2023/04/09 12:45:48;;;;;;;1.6;1.5;;;;;;;13.12;44.43848;942.339;;;;
2023/04/09 12:48:13;;;;;;;1.6;1.5;;;;;;;13.24;46.13867;942.3771;;;;
2023/04/09 12:50:39;;;;;;;1.4;1.3;;;;;;;13.16;45.86621;942.3824;;;;
2023/04/09 12:53:04;;;;;;;1.6;1.5;;;;;;;13.42;42.95117;942.3583;;;;
2023/04/09 12:55:31;;;;;;;1.6;1.3;;;;;;;13.44;42.94238;942.4064;;;;
2023/04/09 12:57:57;;;;;;;1.3;1.2;;;;;;;13.74;42.30469;942.3546;;;;
2023/04/09 13:00:23;;;;;;;1.4;1.3;;;;;;;14.16;41.12598;942.366;;;;
2023/04/09 13:02:50;;;;;;;1.9;1.4;;;;;;;14.37;41.08789;942.3137;;;;
2023/04/09 13:05:19;;;;;;;1.2;1.1;;;;;;;15.87;39.29883;942.3279;;;;
2023/04/09 13:07:44;;;;;;;1.8;1.2;;;;;;;17.74;34.98535;942.1326;;;;
2023/04/09 13:10:16;;;;;;;1.2;1.1;;;;;;;18.43;34.73828;942.1287;;;;
2023/04/09 13:12:42;;;;;;;1.4;1.3;;;;;;;18.4;33.95703;942.1902;;;;
2023/04/09 13:15:08;;;;;;;1.9;1.7;;;;;;;17.49;35.42969;942.1542;;;;
2023/04/09 13:17:35;;;;;;;1.9;1.7;;;;;;;16.61;37.00195;942.1308;;;;
2023/04/09 13:20:00;;;;;;;2;1.8;;;;;;;16.12;39.27441;942.1616;;;;
2023/04/09 13:22:26;;;;;;;2.3;2.1;;;;;;;14.74;43.10547;942.0751;;;;
2023/04/09 13:24:51;;;;;;;2.5;2.3;;;;;;;13.65;45.0791;942.134;;;;
2023/04/09 13:27:19;;;;;;;2.6;2.2;;;;;;;13.85;44.80176;942.1278;;;;
2023/04/09 13:29:44;;;;;;;3.1;2.7;;;;;;;13.9;44.93164;942.1264;;;;
2023/04/09 13:32:11;;;;;;;2.5;2.3;;;;;;;13.98;43.5127;942.1074;;;;
2023/04/09 13:34:36;;;;;;;2.2;2;;;;;;;13.99;44.82715;942.1217;;;;
2023/04/09 13:37:04;;;;;;;2.8;2.3;;;;;;;13.91;45.24414;942.0839;;;;
2023/04/09 13:39:29;;;;;;;3.2;2.8;;;;;;;13.61;45.50098;942.104;;;;
2023/04/09 13:41:56;;;;;;;3;2.6;;;;;;;12.86;46.44434;941.9981;;;;
2023/04/09 13:44:20;;;;;;;2.9;2.6;;;;;;;12.79;47.44629;942.178;;;;
2023/04/09 13:46:47;;;;;;;3.5;2.9;;;;;;;12.73;48.07031;942.1216;;;;
2023/04/09 13:49:12;;;;;;;2.9;2.5;;;;;;;12.82;48.13867;942.1689;;;;
2023/04/09 13:51:38;;;;;;;3;2.4;;;;;;;12.79;47.30859;942.142;;;;
2023/04/09 13:54:03;;;;;;;2.5;2.2;;;;;;;13.27;44.13086;942.1005;;;;
2023/04/09 13:56:28;;;;;;;2.3;2.1;;;;;;;13.34;45.18555;942.0753;;;;
2023/04/09 13:58:53;;;;;;;1.9;1.8;;;;;;;13.15;45.02734;942.1105;;;;
2023/04/09 14:01:21;;;;;;;2.6;2.2;;;;;;;13.36;45.11816;942.0506;;;;
2023/04/09 14:03:46;;;;;;;2.9;2.6;;;;;;;13.26;47.7041;942.1046;;;;
2023/04/09 14:06:13;;;;;;;3.3;2.9;;;;;;;13.23;46.61035;942.1364;;;;
2023/04/09 14:08:38;;;;;;;3.4;3;;;;;;;13;49.08887;942.1933;;;;
2023/04/09 14:11:03;;;;;;;3.2;2.9;;;;;;;13.09;47.37598;942.1102;;;;
2023/04/09 14:13:28;;;;;;;3.5;2.8;;;;;;;13.38;45.6377;942.0531;;;;
2023/04/09 14:15:57;;;;;;;2.9;2.6;;;;;;;13.46;45.63379;942.0977;;;;
2023/04/09 14:18:22;;;;;;;2.9;2.6;;;;;;;13.64;44.05469;942.0564;;;;
2023/04/09 14:20:50;;;;;;;2.8;2.5;;;;;;;13.24;44.4043;942.0052;;;;
2023/04/09 14:23:15;;;;;;;2.9;2.5;;;;;;;13.02;46.51758;942.0514;;;;
2023/04/09 14:25:42;;;;;;;3.4;2.9;;;;;;;12.64;47.12012;942.0154;;;;
2023/04/09 14:28:07;;;;;;;3;2.7;;;;;;;12.81;46.57617;942.0311;;;;
2023/04/09 14:30:36;;;;;;;3.7;2.7;;;;;;;13.07;45.50293;942.0389;;;;
2023/04/09 14:33:00;;;;;;;3.6;3.1;;;;;;;12.95;45.83398;941.9972;;;;
2023/04/09 14:35:27;;;;;;;3.4;2.8;;;;;;;12.68;48.00684;942.0477;;;;
2023/04/09 14:37:52;;;;;;;3.5;2.9;;;;;;;12.52;48.47168;941.9711;;;;
2023/04/09 14:40:17;;;;;;;3.2;2.9;;;;;;;12.54;46.62793;942.0056;;;;
2023/04/09 14:42:43;;;;;;;3.6;3.1;;;;;;;12.73;46.6709;941.9658;;;;
2023/04/09 14:45:09;;;;;;;4.2;3.5;;;;;;;12.77;46.72168;941.9117;;;;
2023/04/09 14:47:34;;;;;;;5.8;4.4;;;;;;;12.63;47.96777;942.0673;;;;
2023/04/09 14:50:01;;;;;;;5.6;4;;;;;;;12.95;47.94629;941.9811;;;;
2023/04/09 14:52:29;;;;;;;6.1;4.5;;;;;;;13.19;47.62793;941.9711;;;;
2023/04/09 14:54:51;;;;;;;5.4;4.7;;;;;;;13.41;49.54883;941.9877;;;;
2023/04/09 14:57:19;;;;;;;5.7;4.6;;;;;;;13.26;46.73926;941.9878;;;;
2023/04/09 14:59:44;;;;;;;5.1;4.6;;;;;;;12.94;48.24414;941.9819;;;;
2023/04/09 15:02:10;;;;;;;5.9;4.8;;;;;;;12.51;48.41406;942.0094;;;;
2023/04/09 15:04:35;;;;;;;5.9;4.8;;;;;;;12.53;48.28906;942.0598;;;;
2023/04/09 15:07:03;;;;;;;5.6;4.8;;;;;;;12.69;49.13281;941.9775;;;;
2023/04/09 15:09:28;;;;;;;5.2;4.6;;;;;;;12.71;48.02148;941.9808;;;;
2023/04/09 15:11:54;;;;;;;5.7;4.8;;;;;;;12.67;47.52539;942.0374;;;;
2023/04/09 15:14:20;;;;;;;6.4;5.1;;;;;;;12.29;48.83691;942.0584;;;;
2023/04/09 15:16:46;;;;;;;6.5;5.4;;;;;;;12.16;51.62891;941.9228;;;;
2023/04/09 15:19:11;;;;;;;7.6;5.9;;;;;;;12.1;52.84863;942.038;;;;
2023/04/09 15:21:37;;;;;;;6.3;5.1;;;;;;;11.97;50.57422;942.038;;;;
2023/04/09 15:24:03;;;;;;;7;5.7;;;;;;;11.92;50.91406;941.9163;;;;
2023/04/09 15:26:32;;;;;;;7.4;5.7;;;;;;;11.81;52.27441;941.9714;;;;
2023/04/09 15:28:58;;;;;;;8;6.2;;;;;;;11.67;51.52637;941.9633;;;;